createdAt,value
2022-12-11T00:00:16.680Z,21.20
2022-12-11T00:03:04.648Z,20.30
2022-12-11T00:05:43.920Z,22.50
2022-12-11T00:08:20.080Z,18.60
2022-12-11T00:10:49.904Z,17.70
2022-12-11T00:13:17.946Z,17.80
2022-12-11T00:15:46.860Z,18.90
2022-12-11T00:18:19.313Z,18.60
2022-12-11T00:20:47.216Z,21.00
2022-12-11T00:23:20.361Z,19.20
2022-12-11T00:25:48.462Z,18.40
2022-12-11T00:28:19.853Z,19.00
2022-12-11T00:30:48.175Z,18.50
2022-12-11T00:33:16.479Z,20.60
2022-12-11T00:35:54.989Z,18.30
2022-12-11T00:38:23.344Z,17.40
2022-12-11T00:40:59.269Z,18.40
2022-12-11T00:43:27.206Z,20.10
2022-12-11T00:45:55.203Z,21.50
2022-12-11T00:48:26.632Z,19.10
2022-12-11T00:50:54.519Z,17.20
2022-12-11T00:53:22.468Z,17.70
2022-12-11T00:55:57.704Z,16.50
2022-12-11T00:58:25.726Z,16.70
2022-12-11T01:00:54.331Z,16.40
2022-12-11T01:03:23.239Z,15.10
2022-12-11T01:05:57.313Z,15.50
2022-12-11T01:08:25.264Z,16.50
2022-12-11T01:11:08.011Z,16.50
2022-12-11T01:13:39.670Z,16.00
2022-12-11T01:16:16.105Z,17.10
2022-12-11T01:18:46.508Z,16.90
2022-12-11T01:21:15.043Z,14.90
2022-12-11T01:23:49.638Z,15.40
2022-12-11T01:26:17.932Z,13.70
2022-12-11T01:28:48.971Z,15.40
2022-12-11T01:31:20.048Z,14.80
2022-12-11T01:33:48.756Z,14.00
2022-12-11T01:36:21.899Z,14.10
2022-12-11T01:38:52.790Z,13.50
2022-12-11T01:41:21.161Z,13.00
2022-12-11T01:44:08.579Z,13.30
2022-12-11T01:46:38.963Z,12.60
2022-12-11T01:49:12.951Z,13.40
2022-12-11T01:51:56.525Z,13.30
2022-12-11T01:54:31.852Z,13.90
2022-12-11T01:57:07.103Z,12.70
2022-12-11T01:59:38.346Z,13.40
2022-12-11T02:02:18.929Z,12.60
2022-12-11T02:04:48.618Z,13.90
2022-12-11T02:07:16.924Z,12.40
2022-12-11T02:09:47.754Z,12.70
2022-12-11T02:12:36.487Z,12.50
2022-12-11T02:15:21.121Z,13.80
2022-12-11T02:18:36.163Z,14.10
2022-12-11T02:21:20.793Z,14.40
2022-12-11T02:24:18.155Z,13.70
2022-12-11T02:27:00.935Z,12.90
2022-12-11T02:29:39.519Z,12.00
2022-12-11T02:32:15.080Z,12.60
2022-12-11T02:34:50.548Z,11.70
2022-12-11T02:37:26.500Z,12.70
2022-12-11T02:39:57.552Z,12.80
2022-12-11T02:42:31.430Z,14.10
2022-12-11T02:45:04.318Z,13.30
2022-12-11T02:47:35.269Z,12.40
2022-12-11T02:50:10.905Z,13.10
2022-12-11T02:52:41.304Z,12.70
2022-12-11T02:55:20.043Z,12.80
2022-12-11T02:58:20.361Z,12.50
2022-12-11T03:00:51.258Z,13.80
2022-12-11T03:03:20.600Z,14.80
2022-12-11T03:05:48.554Z,12.80
2022-12-11T03:08:18.666Z,13.70
2022-12-11T03:10:46.912Z,12.90
2022-12-11T03:13:19.485Z,13.00
2022-12-11T03:15:56.493Z,13.20
2022-12-11T03:18:27.394Z,12.40
2022-12-11T03:21:06.139Z,12.40
2022-12-11T03:23:42.854Z,13.70
2022-12-11T03:26:13.887Z,12.90
2022-12-11T03:28:49.691Z,13.60
2022-12-11T03:31:46.551Z,13.40
2022-12-11T03:34:30.490Z,14.30
2022-12-11T03:37:00.242Z,14.00
2022-12-11T03:39:36.346Z,13.70
2022-12-11T03:42:08.405Z,13.90
2022-12-11T03:44:36.948Z,13.20
2022-12-11T03:47:08.374Z,13.60
2022-12-11T03:49:42.202Z,15.10
2022-12-11T03:52:12.951Z,14.30
2022-12-11T03:54:43.965Z,13.10
2022-12-11T03:57:16.341Z,13.20
2022-12-11T03:59:44.377Z,12.80
2022-12-11T04:02:12.395Z,14.10
2022-12-11T04:04:41.752Z,13.70
2022-12-11T04:07:09.816Z,15.40
2022-12-11T04:09:37.758Z,15.10
2022-12-11T04:12:05.804Z,15.80
2022-12-11T04:14:52.454Z,14.00
2022-12-11T04:17:38.880Z,15.70
2022-12-11T04:20:25.987Z,15.00
2022-12-11T04:24:07.720Z,16.10
2022-12-11T04:26:35.653Z,15.90
2022-12-11T04:29:03.533Z,15.90
2022-12-11T04:31:31.485Z,15.70
2022-12-11T04:33:59.392Z,15.50
2022-12-11T04:36:27.304Z,16.60
2022-12-11T04:38:55.626Z,16.50
2022-12-11T04:41:23.624Z,16.80
2022-12-11T04:43:51.974Z,16.20
2022-12-11T04:46:22.154Z,16.40
2022-12-11T04:48:56.776Z,16.70
2022-12-11T04:51:25.748Z,16.90
2022-12-11T04:53:53.787Z,15.80
2022-12-11T04:56:21.972Z,15.90
2022-12-11T04:58:50.312Z,16.20
2022-12-11T05:01:21.430Z,15.90
2022-12-11T05:03:50.197Z,16.70
2022-12-11T05:06:18.127Z,16.20
2022-12-11T05:08:46.061Z,15.50
2022-12-11T05:11:15.499Z,16.10
2022-12-11T05:13:44.485Z,15.20
2022-12-11T05:16:15.899Z,15.80
2022-12-11T05:18:44.153Z,14.90
2022-12-11T05:21:14.571Z,14.60
2022-12-11T05:23:42.998Z,14.10
2022-12-11T05:26:14.511Z,15.40
2022-12-11T05:28:43.455Z,16.30
2022-12-11T05:32:06.992Z,16.40
2022-12-11T05:34:34.958Z,15.90
2022-12-11T05:37:02.897Z,16.80
2022-12-11T05:39:30.845Z,16.00
2022-12-11T05:41:59.228Z,17.40
2022-12-11T05:44:27.238Z,17.00
2022-12-11T05:46:55.184Z,16.30
2022-12-11T05:49:28.979Z,15.60
2022-12-11T05:51:58.712Z,16.00
2022-12-11T05:54:26.581Z,15.40
2022-12-11T05:56:54.512Z,13.90
2022-12-11T05:59:22.413Z,15.30
2022-12-11T06:01:50.529Z,15.80
2022-12-11T06:04:18.516Z,15.70
2022-12-11T06:06:46.411Z,16.00
2022-12-11T06:09:16.176Z,16.00
2022-12-11T06:11:44.117Z,15.70
2022-12-11T06:14:12.088Z,16.30
2022-12-11T06:16:40.077Z,16.90
2022-12-11T06:19:14.432Z,15.90
2022-12-11T06:21:42.464Z,16.80
2022-12-11T06:24:11.225Z,18.00
2022-12-11T06:26:39.286Z,16.70
2022-12-11T06:29:11.005Z,18.10
2022-12-11T06:31:44.006Z,17.20
2022-12-11T06:34:13.188Z,18.70
2022-12-11T06:36:41.241Z,20.00
2022-12-11T06:39:09.574Z,18.20
2022-12-11T06:41:37.437Z,18.20
2022-12-11T06:44:05.368Z,19.30
2022-12-11T06:46:33.278Z,18.80
2022-12-11T06:49:01.209Z,18.00
2022-12-11T06:51:29.290Z,19.10
2022-12-11T06:53:57.547Z,20.00
2022-12-11T06:56:25.584Z,20.50
2022-12-11T06:58:53.647Z,20.90
2022-12-11T07:01:27.212Z,19.90
2022-12-11T07:03:57.241Z,20.00
2022-12-11T07:06:26.339Z,18.80
2022-12-11T07:08:54.615Z,20.00
2022-12-11T07:11:22.951Z,21.50
2022-12-11T07:13:51.339Z,22.30
2022-12-11T07:16:19.490Z,20.80
2022-12-11T07:18:49.725Z,20.60
2022-12-11T07:21:18.708Z,22.60
2022-12-11T07:23:47.258Z,21.90
2022-12-11T07:26:18.009Z,21.50
2022-12-11T07:28:46.044Z,22.00
2022-12-11T07:31:22.047Z,21.40
2022-12-11T07:33:58.143Z,19.40
2022-12-11T07:36:27.321Z,20.10
2022-12-11T07:38:55.910Z,18.60
2022-12-11T07:41:24.123Z,21.60
2022-12-11T07:43:56.022Z,21.80
2022-12-11T07:46:26.750Z,21.90
2022-12-11T07:48:55.078Z,23.40
2022-12-11T07:51:26.531Z,20.90
2022-12-11T07:53:57.171Z,20.80
2022-12-11T07:56:26.938Z,19.90
2022-12-11T07:58:55.050Z,21.00
2022-12-11T08:01:26.228Z,20.00
2022-12-11T08:03:55.560Z,18.30
2022-12-11T08:06:29.746Z,19.50
2022-12-11T08:09:00.035Z,18.40
2022-12-11T08:11:28.245Z,20.30
2022-12-11T08:13:56.543Z,19.80
2022-12-11T08:16:24.508Z,20.80
2022-12-11T08:18:52.769Z,20.30
2022-12-11T08:21:21.843Z,20.30
2022-12-11T08:23:51.152Z,19.70
2022-12-11T08:26:22.102Z,21.70
2022-12-11T08:28:50.329Z,20.00
2022-12-11T08:31:19.148Z,22.00
2022-12-11T08:33:48.380Z,19.50
2022-12-11T08:36:18.677Z,18.30
2022-12-11T08:38:47.314Z,19.70
2022-12-11T08:41:16.316Z,19.40
2022-12-11T08:43:45.074Z,20.10
2022-12-11T08:46:13.735Z,20.70
2022-12-11T08:48:42.917Z,22.90
2022-12-11T08:51:14.248Z,24.80
2022-12-11T08:53:42.833Z,25.80
2022-12-11T08:56:16.562Z,24.50
2022-12-11T08:58:45.978Z,23.20
2022-12-11T09:01:19.492Z,24.50
2022-12-11T09:03:48.240Z,24.90
2022-12-11T09:06:19.108Z,26.20
2022-12-11T09:08:52.144Z,26.20
2022-12-11T09:11:24.113Z,26.00
2022-12-11T09:13:52.629Z,24.30
2022-12-11T09:16:23.100Z,24.30
2022-12-11T09:18:53.641Z,24.20
2022-12-11T09:21:27.593Z,26.50
2022-12-11T09:23:58.736Z,25.90
2022-12-11T09:26:28.350Z,24.80
2022-12-11T09:28:56.761Z,25.30
2022-12-11T09:31:30.564Z,26.10
2022-12-11T09:34:01.425Z,25.60
2022-12-11T09:36:29.987Z,26.40
2022-12-11T09:39:03.201Z,26.60
2022-12-11T09:41:55.639Z,27.80
2022-12-11T09:44:53.978Z,29.10
2022-12-11T09:47:38.492Z,27.90
2022-12-11T09:50:09.440Z,27.40
2022-12-11T09:52:40.032Z,27.90
2022-12-11T09:55:35.250Z,27.20
2022-12-11T10:00:41.594Z,25.90
2022-12-11T10:03:30.755Z,27.40
2022-12-11T10:06:07.463Z,26.80
2022-12-11T10:08:50.629Z,28.70
2022-12-11T10:11:42.943Z,26.40
2022-12-11T10:14:22.532Z,25.40
2022-12-11T10:17:04.248Z,29.50
2022-12-11T10:19:33.207Z,23.90
2022-12-11T10:22:02.378Z,22.80
2022-12-11T10:27:38.264Z,22.20
2022-12-11T10:30:37.123Z,25.50
2022-12-11T10:33:11.109Z,26.00
2022-12-11T10:35:54.898Z,24.90
2022-12-11T10:38:40.708Z,25.20
2022-12-11T10:41:14.995Z,28.40
2022-12-11T10:43:46.455Z,26.10
2022-12-11T10:46:23.293Z,29.10
2022-12-11T10:48:55.420Z,25.50
2022-12-11T10:51:33.999Z,29.40
2022-12-11T10:54:38.205Z,27.20
2022-12-11T10:57:09.004Z,27.20
2022-12-11T10:59:42.980Z,26.30
2022-12-11T11:02:44.398Z,27.10
2022-12-11T11:05:28.749Z,23.90
2022-12-11T11:08:15.397Z,24.90
2022-12-11T11:11:24.744Z,23.20
2022-12-11T11:14:24.297Z,22.60
2022-12-11T11:16:56.536Z,20.60
2022-12-11T11:19:29.784Z,19.90
2022-12-11T11:22:19.594Z,20.00
2022-12-11T11:24:56.262Z,22.20
2022-12-11T11:28:02.575Z,23.00
2022-12-11T11:30:37.146Z,21.00
2022-12-11T11:35:45.509Z,23.30
2022-12-11T11:38:20.028Z,28.10
2022-12-11T11:41:25.807Z,25.60
2022-12-11T11:43:58.039Z,24.20
2022-12-11T11:46:38.273Z,22.80
2022-12-11T11:49:21.353Z,23.10
2022-12-11T11:52:01.219Z,27.30
2022-12-11T11:55:16.212Z,32.60
2022-12-11T11:57:57.128Z,28.70
2022-12-11T12:00:33.347Z,28.20
2022-12-11T12:03:10.913Z,28.20
2022-12-11T12:05:48.678Z,25.50
2022-12-11T12:08:55.187Z,26.00
2022-12-11T12:11:41.816Z,23.90
2022-12-11T12:14:51.146Z,22.80
2022-12-11T12:17:43.555Z,24.70
2022-12-11T12:20:29.715Z,25.00
2022-12-11T12:23:02.070Z,26.00
2022-12-11T12:25:41.249Z,24.90
2022-12-11T12:28:34.089Z,25.20
2022-12-11T12:31:28.319Z,25.20
2022-12-11T12:34:14.424Z,24.90
2022-12-11T12:37:07.493Z,24.30
2022-12-11T12:39:57.316Z,24.50
2022-12-11T12:42:43.131Z,26.00
2022-12-11T12:45:14.449Z,24.90
2022-12-11T12:47:46.652Z,24.20
2022-12-11T12:50:20.519Z,25.60
2022-12-11T12:52:51.437Z,27.90
2022-12-11T12:55:25.214Z,26.30
2022-12-11T12:58:00.489Z,27.20
2022-12-11T13:00:32.147Z,29.40
2022-12-11T13:03:13.462Z,27.80
2022-12-11T13:05:45.864Z,28.30
2022-12-11T13:08:27.792Z,29.40
2022-12-11T13:11:02.656Z,33.60
2022-12-11T13:13:43.201Z,37.60
2022-12-11T13:16:17.396Z,34.50
2022-12-11T13:18:48.307Z,33.40
2022-12-11T13:21:27.802Z,33.50
2022-12-11T13:24:12.644Z,37.30
2022-12-11T13:29:35.463Z,36.70
2022-12-11T13:32:20.489Z,38.60
2022-12-11T13:34:56.702Z,42.10
2022-12-11T13:37:34.839Z,38.60
2022-12-11T13:40:08.384Z,37.10
2022-12-11T13:42:44.489Z,36.40
2022-12-11T13:45:44.624Z,40.30
2022-12-11T13:48:21.997Z,39.90
2022-12-11T13:50:54.708Z,37.50
2022-12-11T13:53:23.713Z,36.50
2022-12-11T13:56:04.186Z,37.20
2022-12-11T13:58:38.343Z,37.70
2022-12-11T14:01:11.367Z,40.20
2022-12-11T14:03:43.429Z,38.20
2022-12-11T14:06:18.228Z,39.40
2022-12-11T14:08:51.900Z,39.40
2022-12-11T14:11:30.394Z,39.20
2022-12-11T14:14:01.864Z,37.90
2022-12-11T14:16:30.621Z,35.90
2022-12-11T14:19:08.433Z,34.40
2022-12-11T14:21:36.963Z,36.90
2022-12-11T14:24:13.536Z,35.00
2022-12-11T14:26:50.987Z,33.30
2022-12-11T14:29:26.839Z,31.70
2022-12-11T14:32:07.760Z,32.80
2022-12-11T14:34:44.398Z,33.00
2022-12-11T14:37:16.020Z,36.30
2022-12-11T14:40:17.148Z,34.50
2022-12-11T14:42:51.740Z,36.90
2022-12-11T14:45:31.229Z,34.80
2022-12-11T14:48:03.258Z,32.20
2022-12-11T14:50:39.411Z,34.20
2022-12-11T14:53:18.454Z,33.50
2022-12-11T14:55:49.176Z,33.50
2022-12-11T14:58:36.654Z,37.00
2022-12-11T15:01:21.395Z,39.10
2022-12-11T15:04:28.247Z,37.60
2022-12-11T15:06:56.323Z,39.70
2022-12-11T15:09:28.918Z,38.20
2022-12-11T15:12:00.133Z,37.50
2022-12-11T15:14:28.183Z,41.30
2022-12-11T15:17:00.166Z,47.80
2022-12-11T15:19:35.238Z,43.80
2022-12-11T15:22:06.766Z,48.50
2022-12-11T15:24:41.767Z,43.20
2022-12-11T15:27:26.793Z,36.10
2022-12-11T15:29:54.767Z,41.90
2022-12-11T15:32:25.303Z,36.20
2022-12-11T15:34:55.862Z,34.80
2022-12-11T15:37:32.786Z,38.80
2022-12-11T15:40:02.685Z,36.30
2022-12-11T15:42:39.743Z,35.30
2022-12-11T15:45:16.054Z,35.10
2022-12-11T15:47:44.770Z,35.60
2022-12-11T15:50:30.659Z,37.60
2022-12-11T15:53:00.716Z,39.30
2022-12-11T15:55:38.135Z,38.10
2022-12-11T15:58:11.492Z,42.20
2022-12-11T16:00:39.456Z,47.40
2022-12-11T16:03:16.756Z,42.80
2022-12-11T16:05:44.927Z,42.50
2022-12-11T16:08:15.666Z,43.20
2022-12-11T16:10:45.491Z,46.20
2022-12-11T16:13:14.951Z,47.40
2022-12-11T16:15:45.185Z,43.60
2022-12-11T16:18:19.457Z,40.70
2022-12-11T16:20:48.253Z,41.00
2022-12-11T16:23:22.909Z,42.40
2022-12-11T16:25:53.756Z,42.70
2022-12-11T16:28:21.993Z,41.20
2022-12-11T16:30:50.110Z,43.50
2022-12-11T16:33:20.992Z,44.10
2022-12-11T16:35:48.989Z,46.60
2022-12-11T16:38:16.939Z,44.30
2022-12-11T16:40:47.962Z,43.60
2022-12-11T16:43:15.946Z,41.40
2022-12-11T16:45:45.474Z,40.90
2022-12-11T16:48:13.406Z,40.20
2022-12-11T16:50:41.460Z,37.20
2022-12-11T16:53:14.661Z,37.50
2022-12-11T16:55:45.036Z,42.10
2022-12-11T16:58:18.984Z,38.60
2022-12-11T17:00:48.278Z,38.20
2022-12-11T17:03:20.017Z,37.60
2022-12-11T17:05:47.904Z,36.00
2022-12-11T17:08:17.354Z,35.40
2022-12-11T17:10:45.720Z,36.30
2022-12-11T17:13:18.048Z,41.60
2022-12-11T17:15:46.158Z,36.00
2022-12-11T17:18:16.382Z,31.90
2022-12-11T17:20:45.169Z,37.80
2022-12-11T17:23:15.936Z,40.80
2022-12-11T17:25:45.592Z,37.80
2022-12-11T17:28:15.953Z,36.60
2022-12-11T17:30:45.647Z,36.10
2022-12-11T17:33:16.535Z,43.80
2022-12-11T17:35:44.700Z,41.10
2022-12-11T17:38:14.916Z,38.90
2022-12-11T17:40:44.152Z,37.30
2022-12-11T17:43:13.874Z,39.30
2022-12-11T17:45:43.168Z,42.90
2022-12-11T17:48:15.007Z,38.00
2022-12-11T17:50:45.360Z,38.40
2022-12-11T17:53:16.315Z,37.40
2022-12-11T17:55:48.427Z,38.00
2022-12-11T17:58:22.018Z,38.40
2022-12-11T18:00:55.888Z,38.90
2022-12-11T18:03:25.555Z,38.50
2022-12-11T18:05:56.484Z,37.50
2022-12-11T18:08:30.136Z,40.20
2022-12-11T18:11:06.433Z,48.20
2022-12-11T18:13:35.064Z,43.40
2022-12-11T18:16:09.172Z,44.10
2022-12-11T18:18:37.284Z,48.20
2022-12-11T18:21:06.456Z,41.00
2022-12-11T18:23:34.815Z,41.50
2022-12-11T18:26:02.798Z,39.00
2022-12-11T18:28:32.445Z,39.40
2022-12-11T18:31:03.403Z,41.90
2022-12-11T18:33:32.247Z,41.10
2022-12-11T18:36:00.225Z,40.20
2022-12-11T18:38:31.144Z,44.20
2022-12-11T18:41:05.636Z,43.50
2022-12-11T18:46:15.244Z,47.90
2022-12-11T18:48:46.879Z,53.80
2022-12-11T18:51:18.622Z,50.40
2022-12-11T18:53:46.672Z,50.50
2022-12-11T18:56:16.800Z,49.30
2022-12-11T18:58:46.160Z,51.10
2022-12-11T19:01:26.618Z,55.40
2022-12-11T19:04:03.263Z,52.90
2022-12-11T19:06:35.767Z,52.60
2022-12-11T19:09:08.929Z,48.60
2022-12-11T19:11:40.307Z,51.40
2022-12-11T19:14:09.499Z,54.50
2022-12-11T19:16:41.957Z,52.60
2022-12-11T19:19:13.601Z,50.20
2022-12-11T19:21:42.765Z,51.30
2022-12-11T19:24:22.110Z,48.80
2022-12-11T19:26:50.131Z,49.30
2022-12-11T19:29:28.478Z,54.80
2022-12-11T19:31:56.563Z,52.20
2022-12-11T19:34:26.648Z,51.90
2022-12-11T19:36:54.875Z,50.40
2022-12-11T19:39:24.367Z,54.60
2022-12-11T19:41:52.475Z,52.30
2022-12-11T19:44:20.482Z,50.60
2022-12-11T19:46:48.448Z,54.40
2022-12-11T19:49:18.460Z,48.30
2022-12-11T19:51:46.407Z,57.00
2022-12-11T19:54:16.778Z,55.50
2022-12-11T19:56:45.465Z,54.70
2022-12-11T19:59:16.729Z,55.20
2022-12-11T20:01:48.064Z,63.00
2022-12-11T20:04:17.703Z,59.90
2022-12-11T20:06:48.734Z,51.60
2022-12-11T20:09:17.067Z,42.80
2022-12-11T20:11:47.619Z,43.50
2022-12-11T20:14:20.177Z,46.00
2022-12-11T20:17:11.036Z,46.70
2022-12-11T20:19:41.961Z,44.90
2022-12-11T20:22:12.704Z,45.80
2022-12-11T20:24:40.752Z,46.30
2022-12-11T20:27:12.513Z,53.30
2022-12-11T20:29:40.571Z,55.60
2022-12-11T20:32:11.538Z,50.20
2022-12-11T20:34:39.723Z,41.70
2022-12-11T20:37:09.198Z,44.00
2022-12-11T20:39:37.323Z,46.40
2022-12-11T20:42:06.085Z,47.50
2022-12-11T20:44:35.934Z,47.70
2022-12-11T20:47:04.027Z,41.50
2022-12-11T20:49:32.008Z,46.00
2022-12-11T20:51:59.931Z,48.10
2022-12-11T20:54:28.432Z,42.20
2022-12-11T20:56:56.771Z,40.00
2022-12-11T20:59:26.210Z,37.40
2022-12-11T21:01:54.260Z,43.20
2022-12-11T21:04:22.791Z,46.60
2022-12-11T21:06:55.268Z,40.00
2022-12-11T21:09:25.429Z,43.80
2022-12-11T21:11:56.592Z,39.00
2022-12-11T21:14:25.853Z,44.50
2022-12-11T21:16:54.020Z,50.80
2022-12-11T21:19:30.416Z,50.30
2022-12-11T21:22:02.732Z,43.00
2022-12-11T21:24:31.524Z,49.70
2022-12-11T21:26:59.728Z,41.60
2022-12-11T21:29:52.993Z,51.70
2022-12-11T21:32:23.744Z,79.50
2022-12-11T21:34:51.853Z,63.40
2022-12-11T21:37:22.371Z,41.20
2022-12-11T21:39:50.573Z,43.30
2022-12-11T21:42:20.493Z,42.40
2022-12-11T21:47:36.546Z,37.00
2022-12-11T21:50:04.771Z,39.90
2022-12-11T21:52:34.831Z,44.40
2022-12-11T21:55:03.543Z,41.10
2022-12-11T21:57:31.550Z,44.40
2022-12-11T22:00:02.637Z,48.40
2022-12-11T22:02:42.062Z,42.40
2022-12-11T22:05:10.520Z,49.10
2022-12-11T22:07:41.307Z,66.10
2022-12-11T22:10:09.770Z,55.00
2022-12-11T22:12:37.756Z,44.30
2022-12-11T22:15:09.490Z,40.30
2022-12-11T22:17:39.797Z,41.40
2022-12-11T22:20:08.180Z,41.60
2022-12-11T22:22:36.074Z,43.40
2022-12-11T22:25:07.064Z,40.00
2022-12-11T22:27:35.053Z,41.80
2022-12-11T22:30:03.364Z,43.40
2022-12-11T22:32:31.301Z,42.80
2022-12-11T22:34:59.245Z,42.50
2022-12-11T22:37:27.171Z,39.80
2022-12-11T22:39:55.196Z,38.20
2022-12-11T22:42:23.285Z,43.10
2022-12-11T22:44:51.300Z,41.10
2022-12-11T22:47:19.326Z,38.60
2022-12-11T22:49:47.252Z,35.30
2022-12-11T22:52:15.182Z,35.00
2022-12-11T22:54:43.180Z,37.70
2022-12-11T22:57:11.148Z,35.60
2022-12-11T22:59:39.098Z,34.40
2022-12-11T23:02:07.189Z,36.70
2022-12-11T23:04:35.160Z,38.00
2022-12-11T23:07:03.859Z,44.30
2022-12-11T23:09:32.107Z,39.30
2022-12-11T23:12:00.171Z,36.30
2022-12-11T23:14:28.324Z,34.50
2022-12-11T23:16:56.388Z,36.70
2022-12-11T23:19:25.702Z,35.00
2022-12-11T23:21:53.839Z,35.40
2022-12-11T23:24:22.512Z,35.70
2022-12-11T23:26:50.531Z,37.20
2022-12-11T23:29:18.543Z,36.80
2022-12-11T23:31:46.478Z,41.10
2022-12-11T23:34:14.375Z,38.00
2022-12-11T23:36:42.340Z,37.60
2022-12-11T23:39:10.276Z,38.90
2022-12-11T23:41:38.361Z,36.50
2022-12-11T23:44:06.284Z,39.80
2022-12-11T23:46:34.573Z,38.60
2022-12-11T23:49:02.950Z,36.40
2022-12-11T23:51:31.088Z,36.10
2022-12-11T23:53:59.041Z,35.40
2022-12-11T23:56:29.301Z,34.30
2022-12-11T23:58:57.458Z,39.00
